createdAt,value
2023-01-29T00:01:51.564Z,101457.40
2023-01-29T00:04:28.407Z,101463.00
2023-01-29T00:07:05.316Z,101462.20
2023-01-29T00:09:42.329Z,101460.40
2023-01-29T00:12:19.691Z,101462.60
2023-01-29T00:14:56.975Z,101460.40
2023-01-29T00:17:34.114Z,101463.40
2023-01-29T00:20:15.525Z,101462.60
2023-01-29T00:22:51.973Z,101463.20
2023-01-29T00:25:28.849Z,101457.60
2023-01-29T00:28:05.529Z,101461.20
2023-01-29T00:30:42.471Z,101463.20
2023-01-29T00:33:19.586Z,101466.40
2023-01-29T00:35:55.764Z,101467.80
2023-01-29T00:38:32.400Z,101464.00
2023-01-29T00:41:31.364Z,101463.20
2023-01-29T00:44:25.536Z,101468.40
2023-01-29T00:47:02.279Z,101462.60
2023-01-29T00:49:39.236Z,101461.20
2023-01-29T00:52:27.586Z,101465.40
2023-01-29T00:55:05.076Z,101466.20
2023-01-29T00:57:41.889Z,101465.40
2023-01-29T01:00:27.219Z,101464.80
2023-01-29T01:03:09.356Z,101472.60
2023-01-29T01:05:46.447Z,101474.20
2023-01-29T01:08:39.081Z,101471.60
2023-01-29T01:11:15.705Z,101473.20
2023-01-29T01:13:52.134Z,101474.00
2023-01-29T01:16:29.562Z,101472.00
2023-01-29T01:19:06.092Z,101477.60
2023-01-29T01:21:45.738Z,101468.80
2023-01-29T01:24:23.675Z,101469.80
2023-01-29T01:27:00.414Z,101475.80
2023-01-29T01:29:38.285Z,101481.00
2023-01-29T01:32:16.138Z,101482.20
2023-01-29T01:34:52.284Z,101480.40
2023-01-29T01:37:28.954Z,101482.20
2023-01-29T01:40:06.115Z,101478.20
2023-01-29T01:42:43.680Z,101479.80
2023-01-29T01:45:28.423Z,101482.60
2023-01-29T01:48:14.353Z,101484.20
2023-01-29T01:50:56.236Z,101482.20
2023-01-29T01:53:41.856Z,101481.20
2023-01-29T01:56:25.691Z,101483.20
2023-01-29T01:59:03.561Z,101480.80
2023-01-29T02:01:42.964Z,101481.20
2023-01-29T02:04:42.025Z,101475.20
2023-01-29T02:07:37.767Z,101472.20
2023-01-29T02:10:20.688Z,101471.00
2023-01-29T02:12:57.274Z,101471.20
2023-01-29T02:15:34.392Z,101474.20
2023-01-29T02:18:12.281Z,101475.80
2023-01-29T02:21:05.771Z,101482.20
2023-01-29T02:24:19.622Z,101488.40
2023-01-29T02:27:11.298Z,101484.80
2023-01-29T02:30:01.810Z,101486.80
2023-01-29T02:32:54.774Z,101493.80
2023-01-29T02:35:37.874Z,101489.40
2023-01-29T02:38:29.518Z,101493.00
2023-01-29T02:41:13.053Z,101492.60
2023-01-29T02:44:00.428Z,101495.00
2023-01-29T02:46:43.828Z,101499.80
2023-01-29T02:49:34.417Z,101495.20
2023-01-29T02:52:20.075Z,101495.80
2023-01-29T02:55:04.970Z,101493.00
2023-01-29T02:57:47.149Z,101490.80
2023-01-29T03:00:29.204Z,101483.40
2023-01-29T03:03:11.359Z,101482.00
2023-01-29T03:06:00.007Z,101484.80
2023-01-29T03:08:45.810Z,101481.20
2023-01-29T03:11:23.393Z,101487.40
2023-01-29T03:14:07.371Z,101481.40
2023-01-29T03:16:52.540Z,101489.40
2023-01-29T03:19:38.279Z,101488.00
2023-01-29T03:22:22.287Z,101489.20
2023-01-29T03:25:21.189Z,101489.80
2023-01-29T03:28:18.255Z,101499.00
2023-01-29T03:31:13.706Z,101501.20
2023-01-29T03:34:09.659Z,101504.80
2023-01-29T03:36:55.950Z,101505.60
2023-01-29T03:39:33.665Z,101500.60
2023-01-29T03:42:20.182Z,101504.20
2023-01-29T03:45:08.388Z,101502.00
2023-01-29T03:48:02.393Z,101503.20
2023-01-29T03:50:56.652Z,101506.60
2023-01-29T03:53:44.336Z,101509.20
2023-01-29T03:56:37.280Z,101509.20
2023-01-29T03:59:31.130Z,101507.40
2023-01-29T04:02:28.219Z,101511.20
2023-01-29T04:05:12.930Z,101513.20
2023-01-29T04:08:05.714Z,101514.20
2023-01-29T04:10:44.269Z,101518.40
2023-01-29T04:13:22.477Z,101508.60
2023-01-29T04:16:06.435Z,101503.60
2023-01-29T04:19:00.432Z,101502.60
2023-01-29T04:21:43.374Z,101504.80
2023-01-29T04:24:21.753Z,101507.00
2023-01-29T04:30:16.580Z,101503.80
2023-01-29T04:33:13.152Z,101498.00
2023-01-29T04:36:06.238Z,101499.00
2023-01-29T04:39:00.098Z,101501.40
2023-01-29T04:41:47.900Z,101497.80
2023-01-29T04:44:35.493Z,101495.20
2023-01-29T04:47:25.053Z,101497.20
2023-01-29T04:50:16.636Z,101500.80
2023-01-29T04:53:03.251Z,101507.80
2023-01-29T04:55:50.090Z,101504.00
2023-01-29T04:58:38.813Z,101507.20
2023-01-29T05:01:22.760Z,101510.80
2023-01-29T05:04:02.329Z,101510.60
2023-01-29T05:06:41.975Z,101510.60
2023-01-29T05:09:21.992Z,101509.40
2023-01-29T05:11:58.577Z,101518.20
2023-01-29T05:14:40.465Z,101514.00
2023-01-29T05:17:22.976Z,101516.20
2023-01-29T05:20:00.466Z,101515.20
2023-01-29T05:22:40.495Z,101513.80
2023-01-29T05:25:29.817Z,101519.40
2023-01-29T05:28:07.332Z,101521.60
2023-01-29T05:30:46.556Z,101521.40
2023-01-29T05:33:26.174Z,101522.20
2023-01-29T05:36:04.145Z,101522.40
2023-01-29T05:38:41.466Z,101521.20
2023-01-29T05:41:17.533Z,101520.20
2023-01-29T05:43:54.051Z,101522.00
2023-01-29T05:46:31.052Z,101520.80
2023-01-29T05:49:07.270Z,101523.60
2023-01-29T05:51:44.256Z,101527.20
2023-01-29T05:54:21.548Z,101532.20
2023-01-29T05:56:58.812Z,101531.00
2023-01-29T05:59:35.213Z,101533.40
2023-01-29T06:02:12.127Z,101534.40
2023-01-29T06:04:48.867Z,101539.40
2023-01-29T06:07:25.237Z,101540.80
2023-01-29T06:10:02.166Z,101538.00
2023-01-29T06:12:38.434Z,101542.80
2023-01-29T06:15:19.855Z,101545.00
2023-01-29T06:17:59.370Z,101546.80
2023-01-29T06:20:35.710Z,101550.60
2023-01-29T06:23:12.886Z,101549.60
2023-01-29T06:25:49.949Z,101554.80
2023-01-29T06:28:26.827Z,101560.20
2023-01-29T06:31:23.795Z,101560.00
2023-01-29T06:34:01.510Z,101562.80
2023-01-29T06:36:36.975Z,101564.40
2023-01-29T06:39:13.418Z,101567.60
2023-01-29T06:41:51.116Z,101571.00
2023-01-29T06:44:28.557Z,101576.00
2023-01-29T06:47:05.268Z,101573.40
2023-01-29T06:49:42.130Z,101580.80
2023-01-29T06:52:18.725Z,101582.60
2023-01-29T06:54:55.614Z,101585.00
2023-01-29T06:57:33.443Z,101589.60
2023-01-29T07:00:15.738Z,101591.20
2023-01-29T07:02:54.493Z,101593.60
2023-01-29T07:05:31.609Z,101598.40
2023-01-29T07:08:09.708Z,101597.20
2023-01-29T07:10:46.176Z,101597.60
2023-01-29T07:13:23.833Z,101604.60
2023-01-29T07:16:03.143Z,101603.80
2023-01-29T07:18:39.566Z,101599.60
2023-01-29T07:21:16.788Z,101607.40
2023-01-29T07:23:53.486Z,101613.40
2023-01-29T07:26:30.724Z,101621.00
2023-01-29T07:29:09.417Z,101628.40
2023-01-29T07:31:46.194Z,101633.60
2023-01-29T07:34:23.554Z,101637.60
2023-01-29T07:37:02.867Z,101637.40
2023-01-29T07:39:39.155Z,101636.40
2023-01-29T07:42:16.134Z,101636.60
2023-01-29T07:44:52.086Z,101645.20
2023-01-29T07:47:28.718Z,101652.60
2023-01-29T07:50:05.357Z,101654.20
2023-01-29T07:52:42.843Z,101660.40
2023-01-29T07:55:19.934Z,101664.80
2023-01-29T07:58:03.267Z,101670.00
2023-01-29T08:00:40.115Z,101672.00
2023-01-29T08:03:20.538Z,101664.00
2023-01-29T08:05:57.346Z,101666.80
2023-01-29T08:08:33.971Z,101666.40
2023-01-29T08:11:11.244Z,101665.40
2023-01-29T08:13:48.198Z,101664.00
2023-01-29T08:16:25.593Z,101669.20
2023-01-29T08:19:01.355Z,101662.60
2023-01-29T08:21:37.835Z,101668.20
2023-01-29T08:24:15.776Z,101668.80
2023-01-29T08:26:52.331Z,101672.80
2023-01-29T08:29:28.343Z,101675.20
2023-01-29T08:32:05.791Z,101678.40
2023-01-29T08:34:43.553Z,101677.00
2023-01-29T08:37:20.318Z,101675.00
2023-01-29T08:39:56.802Z,101671.80
2023-01-29T08:42:33.371Z,101673.80
2023-01-29T08:45:14.053Z,101672.20
2023-01-29T08:47:54.882Z,101673.60
2023-01-29T08:50:32.210Z,101672.00
2023-01-29T08:53:10.019Z,101665.40
2023-01-29T08:55:48.278Z,101669.60
2023-01-29T08:58:24.698Z,101668.20
2023-01-29T09:01:08.340Z,101666.40
2023-01-29T09:03:45.300Z,101669.60
2023-01-29T09:06:22.582Z,101672.40
2023-01-29T09:08:59.206Z,101672.40
2023-01-29T09:11:35.905Z,101679.00
2023-01-29T09:14:12.832Z,101675.20
2023-01-29T09:16:49.176Z,101677.00
2023-01-29T09:19:25.755Z,101679.40
2023-01-29T09:22:02.642Z,101679.00
2023-01-29T09:24:39.616Z,101686.40
2023-01-29T09:27:16.197Z,101685.60
2023-01-29T09:29:53.055Z,101693.80
2023-01-29T09:32:52.787Z,101693.20
2023-01-29T09:35:26.152Z,101691.00
2023-01-29T09:38:02.251Z,101685.80
2023-01-29T09:40:52.035Z,101683.40
2023-01-29T09:43:41.454Z,101690.20
2023-01-29T09:46:30.708Z,101690.60
2023-01-29T09:49:16.499Z,101694.40
2023-01-29T09:52:01.604Z,101685.80
2023-01-29T09:54:52.317Z,101696.60
2023-01-29T09:57:37.446Z,101689.00
2023-01-29T10:00:28.125Z,101688.80
2023-01-29T10:03:25.965Z,101680.80
2023-01-29T10:06:24.397Z,101686.80
2023-01-29T10:09:35.259Z,101688.80
2023-01-29T10:12:30.381Z,101683.40
2023-01-29T10:15:26.329Z,101679.40
2023-01-29T10:18:30.091Z,101673.80
2023-01-29T10:21:27.563Z,101668.00
2023-01-29T10:24:17.442Z,101662.00
2023-01-29T10:26:57.464Z,101656.80
2023-01-29T10:29:36.548Z,101654.00
2023-01-29T10:32:20.475Z,101649.00
2023-01-29T10:35:05.672Z,101653.00
2023-01-29T10:37:45.301Z,101651.00
2023-01-29T10:40:37.357Z,101646.60
2023-01-29T10:43:20.523Z,101636.80
2023-01-29T10:46:12.169Z,101632.80
2023-01-29T10:49:07.515Z,101634.40
2023-01-29T10:52:06.116Z,101628.20
2023-01-29T10:55:02.466Z,101620.80
2023-01-29T10:58:03.070Z,101619.00
2023-01-29T11:00:44.941Z,101613.80
2023-01-29T11:03:28.936Z,101602.40
2023-01-29T11:06:17.776Z,101596.80
2023-01-29T11:09:09.022Z,101595.00
2023-01-29T11:11:53.845Z,101588.40
2023-01-29T11:14:40.650Z,101593.40
2023-01-29T11:17:22.606Z,101580.40
2023-01-29T11:19:59.665Z,101568.60
2023-01-29T11:22:37.711Z,101565.80
2023-01-29T11:25:22.325Z,101563.20
2023-01-29T11:28:02.861Z,101562.20
2023-01-29T11:30:44.436Z,101553.80
2023-01-29T11:33:28.471Z,101548.00
2023-01-29T11:36:22.477Z,101540.80
2023-01-29T11:39:18.532Z,101535.60
2023-01-29T11:42:01.260Z,101533.20
2023-01-29T11:44:44.596Z,101522.80
2023-01-29T11:47:29.321Z,101513.60
2023-01-29T11:50:09.225Z,101512.40
2023-01-29T11:52:49.254Z,101509.00
2023-01-29T11:55:33.066Z,101506.60
2023-01-29T11:58:27.023Z,101493.80
2023-01-29T12:01:05.896Z,101490.40
2023-01-29T12:03:48.637Z,101490.60
2023-01-29T12:06:34.217Z,101488.60
2023-01-29T12:09:24.592Z,101486.60
2023-01-29T12:12:29.512Z,101480.80
2023-01-29T12:15:27.384Z,101476.60
2023-01-29T12:18:19.086Z,101481.20
2023-01-29T12:21:02.045Z,101471.40
2023-01-29T12:23:50.521Z,101473.80
2023-01-29T12:26:33.893Z,101475.40
2023-01-29T12:29:39.563Z,101478.60
2023-01-29T12:32:31.299Z,101469.60
2023-01-29T12:35:22.235Z,101461.40
2023-01-29T12:38:08.428Z,101445.20
2023-01-29T12:40:50.301Z,101443.00
2023-01-29T12:43:38.288Z,101438.60
2023-01-29T12:46:25.073Z,101451.80
2023-01-29T12:49:12.704Z,101458.60
2023-01-29T12:52:01.548Z,101452.20
2023-01-29T12:54:49.256Z,101443.60
2023-01-29T12:57:37.223Z,101438.60
2023-01-29T13:00:25.565Z,101441.00
2023-01-29T13:03:10.593Z,101435.00
2023-01-29T13:05:52.843Z,101431.00
2023-01-29T13:08:34.956Z,101432.20
2023-01-29T13:11:23.370Z,101429.00
2023-01-29T13:14:08.959Z,101429.80
2023-01-29T13:16:51.407Z,101424.00
2023-01-29T13:19:35.318Z,101414.20
2023-01-29T13:22:22.327Z,101406.20
2023-01-29T13:25:05.003Z,101401.40
2023-01-29T13:27:46.123Z,101395.40
2023-01-29T13:31:12.365Z,101391.40
2023-01-29T13:33:57.844Z,101396.40
2023-01-29T13:36:37.443Z,101395.80
2023-01-29T13:39:22.214Z,101397.60
2023-01-29T13:42:00.973Z,101394.40
2023-01-29T13:44:42.579Z,101388.80
2023-01-29T13:47:30.802Z,101390.00
2023-01-29T13:50:19.900Z,101386.80
2023-01-29T13:53:02.474Z,101386.60
2023-01-29T13:55:43.001Z,101389.40
2023-01-29T14:02:29.611Z,101387.60
2023-01-29T14:05:45.598Z,101383.80
2023-01-29T14:08:50.683Z,101385.00
2023-01-29T14:11:55.932Z,101377.80
2023-01-29T14:15:22.802Z,101379.60
2023-01-29T14:18:30.272Z,101378.00
2023-01-29T14:21:20.350Z,101381.80
2023-01-29T14:24:00.744Z,101375.20
2023-01-29T14:26:45.878Z,101374.20
2023-01-29T14:29:35.048Z,101366.60
2023-01-29T14:32:25.244Z,101370.80
2023-01-29T14:35:05.786Z,101366.00
2023-01-29T14:37:48.675Z,101367.40
2023-01-29T14:40:32.275Z,101373.40
2023-01-29T14:43:11.115Z,101371.80
2023-01-29T14:45:47.600Z,101376.00
2023-01-29T14:48:49.799Z,101378.40
2023-01-29T14:51:31.079Z,101381.40
2023-01-29T14:54:24.844Z,101383.80
2023-01-29T14:57:08.359Z,101383.20
2023-01-29T14:59:56.750Z,101383.00
2023-01-29T15:02:40.978Z,101383.00
2023-01-29T15:05:24.071Z,101386.60
2023-01-29T15:08:08.735Z,101383.40
2023-01-29T15:11:14.777Z,101382.60
2023-01-29T15:13:59.630Z,101384.40
2023-01-29T15:16:51.863Z,101382.00
2023-01-29T15:19:36.868Z,101373.80
2023-01-29T15:22:20.105Z,101372.00
2023-01-29T15:25:15.970Z,101373.00
2023-01-29T15:27:53.457Z,101376.20
2023-01-29T15:30:35.452Z,101376.20
2023-01-29T15:33:17.132Z,101380.60
2023-01-29T15:36:06.867Z,101384.00
2023-01-29T15:38:44.503Z,101384.60
2023-01-29T15:41:26.810Z,101381.80
2023-01-29T15:44:06.091Z,101385.80
2023-01-29T15:46:47.285Z,101389.40
2023-01-29T15:49:33.145Z,101392.40
2023-01-29T15:52:17.856Z,101393.00
2023-01-29T15:54:57.583Z,101395.20
2023-01-29T15:57:43.788Z,101400.40
2023-01-29T16:00:32.588Z,101398.00
2023-01-29T16:03:23.979Z,101398.60
2023-01-29T16:06:01.125Z,101401.40
2023-01-29T16:08:39.054Z,101396.80
2023-01-29T16:11:17.289Z,101402.60
2023-01-29T16:13:56.426Z,101402.00
2023-01-29T16:16:34.942Z,101402.40
2023-01-29T16:19:28.161Z,101403.00
2023-01-29T16:22:08.412Z,101401.00
2023-01-29T16:24:48.114Z,101401.80
2023-01-29T16:27:28.627Z,101401.40
2023-01-29T16:30:07.593Z,101396.00
2023-01-29T16:32:44.817Z,101388.80
2023-01-29T16:35:23.318Z,101385.00
2023-01-29T16:38:05.661Z,101388.40
2023-01-29T16:41:05.613Z,101388.00
2023-01-29T16:43:57.480Z,101393.60
2023-01-29T16:46:39.466Z,101396.20
2023-01-29T16:49:51.462Z,101402.60
2023-01-29T16:52:32.794Z,101402.20
2023-01-29T16:55:29.412Z,101405.60
2023-01-29T16:58:18.678Z,101409.40
2023-01-29T17:01:00.603Z,101413.60
2023-01-29T17:03:38.139Z,101415.40
2023-01-29T17:06:26.854Z,101419.60
2023-01-29T17:09:04.869Z,101417.40
2023-01-29T17:11:44.445Z,101419.20
2023-01-29T17:14:27.062Z,101423.80
2023-01-29T17:17:07.609Z,101422.60
2023-01-29T17:19:44.234Z,101417.60
2023-01-29T17:22:21.021Z,101419.00
2023-01-29T17:24:58.320Z,101426.80
2023-01-29T17:27:34.721Z,101421.20
2023-01-29T17:30:21.430Z,101420.20
2023-01-29T17:32:58.747Z,101426.00
2023-01-29T17:35:36.199Z,101427.60
2023-01-29T17:38:25.612Z,101430.60
2023-01-29T17:41:05.438Z,101433.20
2023-01-29T17:43:41.966Z,101439.00
2023-01-29T17:46:21.248Z,101440.20
2023-01-29T17:48:58.085Z,101441.80
2023-01-29T17:51:34.987Z,101442.80
2023-01-29T17:54:13.299Z,101442.20
2023-01-29T17:56:50.268Z,101443.40
2023-01-29T17:59:32.035Z,101435.20
2023-01-29T18:02:29.709Z,101436.60
2023-01-29T18:05:06.843Z,101440.20
2023-01-29T18:07:43.576Z,101441.20
2023-01-29T18:10:25.313Z,101437.40
2023-01-29T18:13:02.432Z,101436.00
2023-01-29T18:15:39.457Z,101432.00
2023-01-29T18:18:21.244Z,101434.20
2023-01-29T18:20:58.703Z,101435.20
2023-01-29T18:23:36.109Z,101435.60
2023-01-29T18:26:15.353Z,101427.60
2023-01-29T18:28:52.630Z,101429.40
2023-01-29T18:31:29.960Z,101428.00
2023-01-29T18:34:06.514Z,101422.00
2023-01-29T18:36:47.158Z,101422.60
2023-01-29T18:39:24.350Z,101422.40
2023-01-29T18:42:01.091Z,101424.20
2023-01-29T18:44:38.406Z,101425.60
2023-01-29T18:47:14.923Z,101422.60
2023-01-29T18:49:52.845Z,101426.20
2023-01-29T18:52:29.421Z,101424.60
2023-01-29T18:55:11.528Z,101424.80
2023-01-29T18:58:26.638Z,101431.00
2023-01-29T19:00:45.055Z,101430.40
2023-01-29T19:03:22.057Z,101430.40
2023-01-29T19:06:02.650Z,101430.00
2023-01-29T19:08:39.395Z,101427.40
2023-01-29T19:11:16.566Z,101425.20
2023-01-29T19:13:53.113Z,101425.20
2023-01-29T19:16:30.375Z,101421.20
2023-01-29T19:19:07.635Z,101417.20
2023-01-29T19:21:43.554Z,101419.20
2023-01-29T19:24:20.461Z,101423.00
2023-01-29T19:26:57.065Z,101420.00
2023-01-29T19:29:33.970Z,101420.60
2023-01-29T19:32:11.413Z,101426.60
2023-01-29T19:34:48.606Z,101423.00
2023-01-29T19:37:25.318Z,101425.60
2023-01-29T19:40:02.312Z,101424.20
2023-01-29T19:42:39.212Z,101429.40
2023-01-29T19:45:37.226Z,101429.00
2023-01-29T19:48:17.114Z,101426.00
2023-01-29T19:50:59.480Z,101431.80
2023-01-29T19:53:36.389Z,101430.60
2023-01-29T19:56:16.078Z,101428.20
2023-01-29T19:58:57.591Z,101425.60
2023-01-29T20:01:34.897Z,101425.60
2023-01-29T20:04:11.965Z,101428.40
2023-01-29T20:06:48.631Z,101427.20
2023-01-29T20:09:25.534Z,101422.20
2023-01-29T20:12:02.278Z,101424.00
2023-01-29T20:14:39.453Z,101421.40
2023-01-29T20:17:16.200Z,101421.00
2023-01-29T20:19:53.454Z,101425.40
2023-01-29T20:22:31.222Z,101424.80
2023-01-29T20:25:08.876Z,101421.40
2023-01-29T20:27:44.711Z,101419.20
2023-01-29T20:30:24.577Z,101418.20
2023-01-29T20:33:00.929Z,101415.80
2023-01-29T20:35:38.445Z,101414.20
2023-01-29T20:38:15.689Z,101417.00
2023-01-29T20:40:52.196Z,101416.20
2023-01-29T20:43:29.232Z,101419.60
2023-01-29T20:46:07.298Z,101420.00
2023-01-29T20:48:44.778Z,101421.00
2023-01-29T20:51:22.607Z,101420.40
2023-01-29T20:53:59.075Z,101422.20
2023-01-29T20:56:41.019Z,101418.80
2023-01-29T20:59:19.667Z,101416.80
2023-01-29T21:01:56.252Z,101421.40
2023-01-29T21:04:33.096Z,101417.80
2023-01-29T21:07:10.148Z,101421.60
2023-01-29T21:09:47.808Z,101422.20
2023-01-29T21:12:24.865Z,101419.60
2023-01-29T21:15:02.321Z,101421.80
2023-01-29T21:17:39.475Z,101421.60
2023-01-29T21:20:21.077Z,101417.20
2023-01-29T21:22:58.918Z,101414.40
2023-01-29T21:25:37.038Z,101411.00
2023-01-29T21:28:14.859Z,101412.60
2023-01-29T21:30:51.397Z,101413.40
2023-01-29T21:33:27.949Z,101405.20
2023-01-29T21:36:08.014Z,101411.40
2023-01-29T21:38:45.761Z,101413.40
2023-01-29T21:41:43.904Z,101415.80
2023-01-29T21:44:20.412Z,101415.80
2023-01-29T21:46:58.695Z,101415.60
2023-01-29T21:49:35.027Z,101413.40
2023-01-29T21:52:12.637Z,101416.40
2023-01-29T21:54:49.899Z,101415.80
2023-01-29T21:57:27.372Z,101415.80
2023-01-29T22:00:04.222Z,101410.40
2023-01-29T22:02:41.565Z,101415.40
2023-01-29T22:05:20.431Z,101416.00
2023-01-29T22:07:57.243Z,101416.00
2023-01-29T22:10:37.342Z,101417.40
2023-01-29T22:13:14.575Z,101417.20
2023-01-29T22:15:51.824Z,101417.00
2023-01-29T22:18:29.460Z,101417.60
2023-01-29T22:21:06.490Z,101415.80
2023-01-29T22:23:42.709Z,101413.20
2023-01-29T22:26:20.344Z,101409.40
2023-01-29T22:28:57.506Z,101410.80
2023-01-29T22:31:34.957Z,101410.00
2023-01-29T22:34:11.729Z,101405.80
2023-01-29T22:36:48.492Z,101404.40
2023-01-29T22:39:25.950Z,101403.00
2023-01-29T22:42:02.877Z,101395.40
2023-01-29T22:44:39.886Z,101392.60
2023-01-29T22:47:17.033Z,101393.00
2023-01-29T22:49:54.052Z,101386.80
2023-01-29T22:52:39.405Z,101384.20
2023-01-29T22:55:21.727Z,101384.20
2023-01-29T22:57:59.914Z,101381.80
2023-01-29T23:00:37.483Z,101379.80
2023-01-29T23:03:14.807Z,101379.40
2023-01-29T23:05:50.878Z,101376.60
2023-01-29T23:08:28.832Z,101378.20
2023-01-29T23:11:15.645Z,101377.80
2023-01-29T23:13:54.779Z,101375.20
2023-01-29T23:16:32.592Z,101375.60
2023-01-29T23:19:08.952Z,101377.60
2023-01-29T23:21:45.647Z,101373.40
2023-01-29T23:24:23.011Z,101369.60
2023-01-29T23:27:17.527Z,101375.80
2023-01-29T23:29:54.318Z,101373.40
2023-01-29T23:32:30.970Z,101375.80
2023-01-29T23:35:08.371Z,101375.80
2023-01-29T23:37:45.568Z,101372.40
2023-01-29T23:40:24.807Z,101372.40
2023-01-29T23:43:01.441Z,101370.20
2023-01-29T23:45:38.208Z,101372.00
2023-01-29T23:48:16.353Z,101369.60
2023-01-29T23:50:53.378Z,101369.80
2023-01-29T23:53:30.088Z,101372.00
2023-01-29T23:56:10.156Z,101369.20
2023-01-29T23:58:46.241Z,101366.40
